• Join FlightAware (Why Join?)
  • Login
  • US Flag 
10:51AM EST


 

Airport Tracker/Info


-or-


 

Live Flight TrackerFlight Track Log ✈ AFL150 ✈ 30-Dec-2013 ✈ UUEE / SVO - MUHA / HAV

Flight Track Log - Related Links

Times and Time Zones

All times are in EST time to prevent confusion due to time zone crossing. See the AFL150 flight status page for this flight to view local times or setup timezone preferences in your user account.

Time Position Orientation Groundspeed Altitude Reporting Facility
EST Latitude Longitude Course Direction KTS MPH feet Rate Location/Type
09:43AM 58.9955 -38.2021 307° West  Level Estimated
09:44AM 58.9368 -38.4023 240° Southwest  Level Estimated
09:45AM 58.8777 -38.6017 240° Southwest  Level Estimated
09:46AM 58.8183 -38.8005 240° Southwest  Level Estimated
09:47AM 58.7586 -38.9986 240° Southwest  Level Estimated
09:48AM 58.6986 -39.1960 240° Southwest  Level Estimated
09:49AM 58.6382 -39.3927 240° Southwest  Level Estimated
09:50AM 58.5776 -39.5888 239° Southwest  Level Estimated
09:51AM 58.5167 -39.7842 239° Southwest  Level Estimated
09:52AM 58.4555 -39.9789 239° Southwest  Level Estimated
09:53AM 58.3941 -40.1729 239° Southwest  Level Estimated
09:54AM 58.3323 -40.3662 239° Southwest  Level Estimated
09:55AM 58.2702 -40.5588 239° Southwest  Level Estimated
09:56AM 58.2078 -40.7508 238° Southwest  Level Estimated
09:57AM 58.1452 -40.9421 238° Southwest  Level Estimated
09:58AM 58.0822 -41.1328 238° Southwest  Level Estimated
09:59AM 58.0190 -41.3227 238° Southwest  Level Estimated
10:00AM 57.9555 -41.5120 238° Southwest  Level Estimated
10:01AM 57.8917 -41.7006 238° Southwest  Level Estimated
10:02AM 57.8277 -41.8886 237° Southwest  Level Estimated
10:03AM 57.7633 -42.0759 237° Southwest  Level Estimated
10:04AM 57.6987 -42.2625 237° Southwest  Level Estimated
10:05AM 57.6338 -42.4484 237° Southwest  Level Estimated
10:06AM 57.5687 -42.6337 237° Southwest  Level Estimated
10:07AM 57.5032 -42.8183 237° Southwest  Level Estimated
10:08AM 57.4375 -43.0023 236° Southwest  Level Estimated
10:09AM 57.3716 -43.1856 236° Southwest  Level Estimated
10:10AM 57.3053 -43.3682 236° Southwest  Level Estimated
10:11AM 57.2388 -43.5502 236° Southwest  Level Estimated
10:12AM 57.1721 -43.7315 236° Southwest  Level Estimated
10:13AM 57.1051 -43.9122 236° Southwest  Level Estimated
10:14AM 57.0378 -44.0922 236° Southwest  Level Estimated
10:15AM 56.9702 -44.2716 235° Southwest  Level Estimated
10:16AM 56.9025 -44.4503 235° Southwest  Level Estimated
10:17AM 56.8344 -44.6283 235° Southwest  Level Estimated
10:18AM 56.7661 -44.8058 235° Southwest  Level Estimated
10:19AM 56.6976 -44.9825 235° Southwest  Level Estimated
10:20AM 56.6288 -45.1587 235° Southwest  Level Estimated
10:21AM 56.5597 -45.3341 235° Southwest  Level Estimated
10:22AM 56.4904 -45.5090 234° Southwest  Level Estimated
10:23AM 56.4209 -45.6832 234° Southwest  Level Estimated
10:24AM 56.3511 -45.8568 234° Southwest  Level Estimated
10:25AM 56.2811 -46.0297 234° Southwest  Level Estimated
10:26AM 56.2108 -46.2020 234° Southwest  Level Estimated
10:27AM 56.1404 -46.3737 234° Southwest  Level Estimated
10:28AM 56.0696 -46.5447 234° Southwest  Level Estimated
10:29AM 55.9986 -46.7151 233° Southwest  Level Estimated
10:30AM 55.9274 -46.8849 233° Southwest  Level Estimated
10:31AM 55.8560 -47.0541 233° Southwest  Level Estimated
10:32AM 55.7843 -47.2226 233° Southwest  Level Estimated
10:33AM 55.7124 -47.3905 233° Southwest  Level Estimated
10:34AM 55.6403 -47.5578 233° Southwest  Level Estimated
10:35AM 55.5680 -47.7245 233° Southwest  Level Estimated
10:36AM 55.4954 -47.8906 232° Southwest  Level Estimated
10:37AM 55.4226 -48.0560 232° Southwest  Level Estimated
10:38AM 55.3495 -48.2209 232° Southwest  Level Estimated
10:38AM 63.1667 -54.8167 231° Southwest 240 276 36,000  Level Gander Center
10:39AM 55.2763 -48.3851 232° Southwest  Level Estimated
10:39AM 63.1167 -55.0500 245° Southwest 390 449 36,000  Level Gander Center
10:40AM 55.2028 -48.5488 232° Southwest  Level Estimated
10:40AM 63.0667 -55.3167 248° West 430 495 36,000  Level Gander Center
10:41AM 55.1291 -48.7118 232° Southwest  Level Estimated
10:41AM 63.0167 -55.5500 245° Southwest 440 506 36,000  Level Gander Center
10:42AM 55.0552 -48.8742 232° Southwest  Level Estimated
10:42AM 62.9667 -55.7833 245° Southwest 440 506 36,000  Level Gander Center
10:43AM 54.9813 -49.0357 231° Southwest  Level Estimated
10:43AM 62.9000 -56.0167 238° Southwest 440 506 36,000  Level Gander Center
10:44AM 62.8500 -56.2333 243° Southwest 440 506 36,000  Level Gander Center
10:45AM 62.8000 -56.4667 245° Southwest 440 506 36,000  Level Gander Center
10:46AM 62.7333 -56.6833 236° Southwest 430 495 36,000  Level Gander Center
10:47AM 62.6667 -56.9167 238° Southwest 430 495 36,000  Level Gander Center
10:48AM 62.6167 -57.1667 247° West 430 495 36,000  Level Gander Center
10:49AM 62.5500 -57.4000 238° Southwest 440 506 36,000  Level Gander Center
10:50AM 62.5000 -57.6167 244° Southwest 420 483 36,000  Level Gander Center
10:51AM 62.4333 -57.8500 238° Southwest 430 495 36,000  Level Gander Center
10:52AM 62.3667 -58.0667 237° Southwest 430 495 36,000  Level Gander Center
10:53AM 62.3167 -58.2833 244° Southwest 430 495 36,000  Level Gander Center
10:54AM 62.2667 -58.4667 240° Southwest 420 483 36,000  Level Gander Center
10:55AM 62.2000 -58.7167 240° Southwest 420 483 36,000  Level Gander Center
10:56AM 62.1167 -58.9167 228° Southwest 380 437 36,000  Level Montreal Center
10:57AM 62.0667 -59.1167 242° Southwest 430 495 36,000  Level Montreal Center
10:58AM 62.0000 -59.3333 237° Southwest 430 495 36,000  Level Montreal Center
10:59AM 61.9500 -59.5500 244° Southwest 430 495 36,000  Level Montreal Center
11:00AM 61.8833 -59.7667 237° Southwest 430 495 36,000  Level Montreal Center
11:01AM 61.8000 -59.9833 231° Southwest 440 506 36,000  Level Montreal Center
11:02AM 61.7333 -60.1667 233° Southwest 430 495 36,000  Level Montreal Center
11:03AM 61.6833 -60.4167 247° West 430 495 36,000  Level Montreal Center
11:04AM 61.6167 -60.6333 237° Southwest 430 495 36,000  Level Montreal Center
11:05AM 61.5500 -60.8333 235° Southwest 430 495 36,000  Level Montreal Center
11:06AM 61.4833 -61.0500 237° Southwest 430 495 36,000  Level Montreal Center
11:07AM 61.4167 -61.2667 237° Southwest 430 495 36,000  Level Montreal Center
11:08AM 61.3500 -61.4667 235° Southwest 430 495 36,000  Level Montreal Center
11:09AM 61.2833 -61.6333 230° Southwest 430 495 36,000  Level Montreal Center
11:10AM 61.2167 -61.8500 237° Southwest 430 495 36,000  Level Montreal Center
11:11AM 61.1500 -62.0500 235° Southwest 430 495 36,000  Level Montreal Center
11:12AM 61.0833 -62.2500 235° Southwest 430 495 36,000  Level Montreal Center
11:13AM 61.0167 -62.4667 238° Southwest 430 495 36,000  Level Montreal Center
11:14AM 60.9500 -62.6667 236° Southwest 420 483 36,000  Level Montreal Center
11:15AM 60.9000 -62.8667 243° Southwest 430 495 36,000  Level Montreal Center
11:16AM 60.8167 -63.1167 236° Southwest 420 483 36,000  Level Gander Center
11:17AM 60.7500 -63.2667 228° Southwest 430 495 36,000  Level Montreal Center
11:18AM 60.6833 -63.4667 236° Southwest 430 495 36,000  Level Montreal Center
11:19AM 60.6167 -63.7167 242° Southwest 430 495 36,000  Level Gander Center
11:20AM 60.5333 -63.9167 230° Southwest 430 495 36,000  Level Gander Center
11:21AM 60.4667 -64.1167 236° Southwest 430 495 36,000  Level Gander Center
11:22AM 60.4000 -64.2667 228° Southwest 430 495 36,000  Level Montreal Center
11:23AM 60.3333 -64.4500 234° Southwest 420 483 36,000  Level Montreal Center
11:24AM 60.2500 -64.5833 218° Southwest 420 483 36,000  Level Montreal Center
11:25AM 60.1667 -64.7500 225° Southwest 420 483 36,000  Level Montreal Center
11:26AM 60.0500 -64.9333 218° Southwest 420 483 36,000  Level Montreal Center
11:27AM 59.9667 -65.0500 215° Southwest 420 483 36,000  Level Montreal Center
11:28AM 59.8833 -65.2167 225° Southwest 420 483 36,000  Level Montreal Center
11:29AM 59.7833 -65.3833 220° Southwest 420 483 36,000  Level Montreal Center
11:30AM 59.7000 -65.5167 219° Southwest 420 483 36,000  Level Montreal Center
11:31AM 59.6167 -65.6667 222° Southwest 420 483 36,000  Level Montreal Center
11:32AM 59.5333 -65.8333 225° Southwest 420 483 36,000  Level Montreal Center
11:33AM 59.4500 -65.9500 215° Southwest 420 483 36,000  Level Montreal Center
11:34AM 59.3500 -66.1167 220° Southwest 420 483 36,000  Level Montreal Center
11:35AM 59.2667 -66.2667 223° Southwest 420 483 36,000  Level Montreal Center
11:36AM 59.1667 -66.4000 214° Southwest 420 483 36,000  Level Montreal Center
11:37AM 59.0833 -66.5500 223° Southwest 410 472 36,000  Level Montreal Center
11:38AM 58.9833 -66.6833 215° Southwest 420 483 36,000  Level Montreal Center
11:39AM 58.9000 -66.8333 223° Southwest 420 483 36,000  Level Montreal Center
11:40AM 58.8000 -66.9833 218° Southwest 420 483 36,000  Level Montreal Center
11:41AM 58.7167 -67.1333 223° Southwest 420 483 36,000  Level Montreal Center
11:42AM 58.6167 -67.2667 215° Southwest 420 483 36,000  Level Montreal Center
11:43AM 58.5333 -67.4167 223° Southwest 420 483 36,000  Level Montreal Center
11:44AM 58.4500 -67.5333 216° Southwest 410 472 36,000  Level Montreal Center
11:45AM 58.3667 -67.6833 223° Southwest 410 472 36,000  Level Montreal Center
11:46AM 58.2667 -67.8333 218° Southwest 410 472 36,000  Level Montreal Center
11:47AM 58.1667 -67.9500 212° Southwest 410 472 36,000  Level Montreal Center
11:48AM 58.0833 -68.1000 224° Southwest 410 472 36,000  Level Montreal Center
11:49AM 57.9833 -68.2167 212° Southwest 410 472 36,000  Level Montreal Center
11:50AM 57.9167 -68.3500 227° Southwest 410 472 36,000  Level Montreal Center
11:51AM 57.8167 -68.4667 212° Southwest 410 472 36,000  Level Montreal Center
11:52AM 57.7167 -68.6167 219° Southwest 420 483 36,000  Level Montreal Center
11:53AM 57.6333 -68.7500 221° Southwest 420 483 36,000  Level Montreal Center
11:54AM 57.5333 -68.8667 212° Southwest 420 483 36,000  Level Montreal Center
11:55AM 57.4500 -69.0167 224° Southwest 420 483 36,000  Level Montreal Center
11:56AM 57.3500 -69.1500 216° Southwest 420 483 36,000  Level Montreal Center
11:57AM 57.2500 -69.2667 212° Southwest 420 483 36,000  Level Montreal Center
11:58AM 57.1833 -69.4000 227° Southwest 420 483 36,000  Level Montreal Center
11:59AM 57.0667 -69.5500 215° Southwest 420 483 36,000  Level Montreal Center
12:00PM 56.9667 -69.6667 212° Southwest 410 472 36,000  Level Montreal Center
12:01PM 56.9000 -69.8000 228° Southwest 410 472 36,000  Level Montreal Center
12:02PM 56.8000 -69.9000 209° Southwest 420 483 36,000  Level Montreal Center
12:03PM 56.6833 -70.0167 209° Southwest 420 483 36,000  Level Montreal Center
12:04PM 56.5833 -70.1500 216° Southwest 410 472 36,000  Level Montreal Center
12:05PM 56.5000 -70.2500 214° Southwest 410 472 36,000  Level Montreal Center
12:06PM 56.4000 -70.3667 213° Southwest 410 472 36,000  Level Montreal Center
12:07PM 56.3000 -70.4667 209° Southwest 410 472 36,000  Level Montreal Center
12:08PM 56.2000 -70.5667 209° Southwest 420 483 36,000  Level Montreal Center
12:09PM 56.1000 -70.7000 217° Southwest 410 472 36,000  Level Montreal Center
12:10PM 56.0167 -70.8167 218° Southwest 420 483 36,000  Level Montreal Center
12:11PM 55.9000 -70.9167 206° Southwest 420 483 36,000  Level Montreal Center
12:12PM 55.8000 -71.0167 209° Southwest 420 483 36,000  Level Montreal Center
12:13PM 55.7000 -71.1167 209° Southwest 420 483 36,000  Level Montreal Center
12:14PM 55.6000 -71.2167 209° Southwest 410 472 36,000  Level Montreal Center
12:15PM 55.5000 -71.3167 210° Southwest 410 472 36,000  Level Montreal Center
12:16PM 55.4000 -71.4500 217° Southwest 420 483 36,000  Level Montreal Center
12:17PM 55.3000 -71.5500 210° Southwest 420 483 36,000  Level Montreal Center
12:18PM 55.2000 -71.6500 210° Southwest 420 483 36,000  Level Montreal Center
12:19PM 55.1000 -71.7500 210° Southwest 420 483 36,000  Level Montreal Center
12:20PM 55.0000 -71.8500 210° Southwest 420 483 36,000  Level Montreal Center
12:21PM 54.9000 -71.9833 217° Southwest 420 483 36,000  Level Montreal Center
12:22PM 54.8000 -72.0833 210° Southwest 420 483 36,000  Level Montreal Center
12:23PM 54.7000 -72.1667 206° Southwest 430 495 36,000  Level Montreal Center
12:24PM 54.6000 -72.2667 210° Southwest 430 495 36,000  Level Montreal Center
12:25PM 54.4833 -72.4000 214° Southwest 430 495 36,000  Level Montreal Center
12:26PM 54.3833 -72.5000 210° Southwest 430 495 36,000  Level Montreal Center
12:27PM 54.2833 -72.5833 206° Southwest 420 483 36,000  Level Montreal Center
12:28PM 54.1667 -72.7167 214° Southwest 430 495 36,000  Level Montreal Center
12:29PM 54.0667 -72.8000 206° Southwest 430 495 36,000  Level Montreal Center
12:31PM 53.8667 -73.0167 213° Southwest 420 483 36,000  Level Montreal Center
12:32PM 53.7667 -73.1167 211° Southwest 420 483 36,000  Level Montreal Center
12:33PM 53.6667 -73.2000 206° Southwest 430 495 36,000  Level Montreal Center
12:34PM 53.5667 -73.3000 211° Southwest 430 495 36,000  Level Montreal Center
12:35PM 53.4500 -73.4167 211° Southwest 430 495 36,000  Level Montreal Center
12:36PM 53.3500 -73.5167 211° Southwest 420 483 36,000  Level Montreal Center
12:37PM 53.2500 -73.6000 207° Southwest 420 483 36,000  Level Montreal Center
12:38PM 53.1500 -73.6833 207° Southwest 430 495 36,000  Level Montreal Center
12:39PM 53.0333 -73.8000 211° Southwest 430 495 36,000  Level Montreal Center
12:40PM 52.9333 -73.9000 211° Southwest 430 495 36,000  Level Montreal Center
12:41PM 52.8333 -73.9833 207° Southwest 420 483 36,000  Level Montreal Center
12:42PM 52.7333 -74.0667 207° Southwest 430 495 36,000  Level Montreal Center
12:43PM 52.6167 -74.1833 211° Southwest 430 495 36,000  Level Montreal Center
12:45PM 52.4000 -74.3667 207° Southwest 420 483 36,000  Level Montreal Center
12:46PM 52.3167 -74.4500 211° Southwest 420 483 36,000  Level Montreal Center
12:47PM 52.2000 -74.5667 212° Southwest 420 483 36,000  Level Montreal Center
12:48PM 52.1000 -74.6500 207° Southwest 420 483 36,000  Level Montreal Center
12:49PM 51.9833 -74.7667 212° Southwest 450 518 36,000  Level Montreal Center
12:50PM 51.8833 -74.8500 207° Southwest 420 483 36,000  Level Montreal Center
12:51PM 51.7833 -74.9333 207° Southwest 420 483 36,000  Level Montreal Center
12:52PM 51.6833 -75.0167 207° Southwest 420 483 36,000  Level Montreal Center
12:53PM 51.5833 -75.1000 207° Southwest 420 483 36,000  Level Montreal Center
12:54PM 51.4667 -75.2000 208° Southwest 420 483 36,000  Level Montreal Center
12:55PM 51.3667 -75.2833 207° Southwest 420 483 36,000  Level Montreal Center
12:56PM 51.2667 -75.3667 208° Southwest 420 483 36,000  Level Montreal Center
12:57PM 51.1667 -75.4500 208° Southwest 420 483 36,000  Level Montreal Center
12:58PM 51.0667 -75.5333 208° Southwest 420 483 36,000  Level Montreal Center
12:59PM 50.9667 -75.6500 216° Southwest 420 483 36,000  Level Montreal Center
01:00PM 50.8500 -75.7333 204° Southwest 420 483 36,000  Level Montreal Center
01:01PM 50.7500 -75.8000 203° Southwest 420 483 36,000  Level Montreal Center
01:02PM 50.6500 -75.8833 208° Southwest 420 483 36,000  Level Montreal Center
01:03PM 50.5333 -76.0000 212° Southwest 430 495 36,000  Level Montreal Center
01:04PM 50.4333 -76.0667 203° Southwest 420 483 36,000  Level Montreal Center
01:05PM 50.3333 -76.1500 208° Southwest 420 483 36,000  Level Montreal Center
01:06PM 50.2333 -76.2333 208° Southwest 420 483 36,000  Level Montreal Center
01:07PM 50.1167 -76.3333 209° Southwest 420 483 36,000  Level Montreal Center
01:08PM 50.0000 -76.4167 205° Southwest 420 483 36,000  Level Montreal Center
01:09PM 49.9000 -76.4833 203° Southwest 420 483 36,000  Level Montreal Center
01:10PM 49.8000 -76.5667 208° Southwest 420 483 36,000  Level Montreal Center
01:11PM 49.7000 -76.6667 213° Southwest 420 483 36,000  Level Montreal Center
01:12PM 49.5833 -76.7500 205° Southwest 420 483 36,000  Level Montreal Center
01:13PM 49.4833 -76.8167 203° Southwest 420 483 36,000  Level Montreal Center
01:14PM 49.3667 -76.9000 205° Southwest 440 506 36,000  Level Montreal Center
01:15PM 49.2833 -77.0000 218° Southwest 410 472 36,000  Level Montreal Center
01:16PM 49.1667 -77.0667 200° South 420 483 36,000  Level Montreal Center
01:17PM 49.0667 -77.1500 209° Southwest 420 483 36,000  Level Montreal Center
01:18PM 48.9667 -77.2500 213° Southwest 420 483 36,000  Level Montreal Center
01:19PM 48.8500 -77.3167 201° Southwest 420 483 36,000  Level Montreal Center
01:20PM 48.7333 -77.4000 205° Southwest 410 472 36,000  Level Montreal Center
01:21PM 48.6333 -77.4667 204° Southwest 420 483 36,000  Level Montreal Center
01:22PM 48.5333 -77.5333 204° Southwest 420 483 36,000  Level Montreal Center
01:23PM 48.4333 -77.6333 214° Southwest 420 483 36,000  Level Montreal Center
01:24PM 48.3333 -77.7167 209° Southwest 420 483 36,000  Level Montreal Center
01:25PM 48.2333 -77.7833 204° Southwest 410 472 36,000  Level Montreal Center
01:26PM 48.1333 -77.8500 204° Southwest 410 472 36,000  Level Montreal Center
01:27PM 48.0167 -77.9333 206° Southwest 420 483 36,000  Level Montreal Center
01:28PM 47.9000 -77.9667 191° South 420 483 36,000  Level Montreal Center
01:29PM 47.8000 -78.0500 209° Southwest 420 483 36,000  Level Montreal Center
01:30PM 47.6833 -78.1167 201° Southwest 420 483 36,000  Level Montreal Center
01:31PM 47.5833 -78.1500 193° South 420 483 36,000  Level Montreal Center
01:32PM 47.4667 -78.2333 206° Southwest 420 483 36,000  Level Montreal Center
01:33PM 47.3667 -78.3000 204° Southwest 420 483 36,000  Level Montreal Center
01:34PM 47.2500 -78.3667 201° Southwest 420 483 36,000  Level Montreal Center
01:35PM 47.1500 -78.4167 199° South 410 472 36,000  Level Montreal Center
01:36PM 47.0333 -78.4833 201° Southwest 410 472 36,000  Level Montreal Center
01:37PM 46.9333 -78.5500 204° Southwest 410 472 36,000  Level Montreal Center
01:38PM 46.8167 -78.5833 191° South 410 472 36,000  Level Montreal Center
01:39PM 46.7167 -78.6667 210° Southwest 410 472 36,000  Level Montreal Center
01:40PM 46.6167 -78.7333 205° Southwest 410 472 36,000  Level Montreal Center
01:41PM 46.5167 -78.7667 193° South 400 460 36,000  Level Montreal Center
01:42PM 46.4000 -78.8333 202° Southwest 410 472 36,000  Level Montreal Center
01:43PM 46.3000 -78.8833 199° South 410 472 36,000  Level Montreal Center
01:44PM 46.1833 -78.9333 197° South 410 472 36,000  Level Toronto Center
01:45PM 46.0833 -78.9833 199° South 410 472 36,000  Level Toronto Center
01:46PM 45.9667 -79.0333 197° South 410 472 36,000  Level Toronto Center
01:47PM 45.8667 -79.1000 205° Southwest 420 483 36,000  Level Toronto Center
01:48PM 45.7500 -79.1500 197° South 420 483 36,000  Level Toronto Center
01:49PM 45.6500 -79.2000 199° South 420 483 36,000  Level Toronto Center
01:50PM 45.5333 -79.2833 207° Southwest 410 472 36,000  Level Toronto Center
01:51PM 45.4333 -79.3167 193° South 410 472 36,000  Level Toronto Center
01:52PM 45.3167 -79.3667 197° South 410 472 36,000  Level Toronto Center
01:53PM 45.2167 -79.4500 210° Southwest 410 472 36,000  Level Toronto Center
01:54PM 45.1000 -79.4833 191° South 410 472 36,000  Level Toronto Center
01:55PM 45.0000 -79.5667 211° Southwest 410 472 36,000  Level Toronto Center
01:56PM 44.8833 -79.6167 197° South 410 472 36,000  Level Toronto Center
01:57PM 44.7833 -79.6500 193° South 410 472 36,000  Level Toronto Center
01:58PM 44.6833 -79.7333 211° Southwest 410 472 36,000  Level Toronto Center
02:04PM 44.0794 -80.2437 211° Southwest 393 452 36,000  Level FlightAware ADS-B (EHTX)
02:05PM 44.0193 -80.2971 213° Southwest 394 453 36,000  Level FlightAware ADS-B (EHTX)
02:05PM 43.9663 -80.3440 212° Southwest 394 453 36,000  Level FlightAware ADS-B (CZBA)
02:06PM 43.9334 -80.3728 212° Southwest 393 452 36,000  Level FlightAware ADS-B
02:07PM 43.8608 -80.4368 212° Southwest 393 452 36,000  Level FlightAware ADS-B
02:07PM 43.8024 -80.4881 212° Southwest 393 452 36,000  Level FlightAware ADS-B (EHTX)
02:08PM 43.7298 -80.5519 212° Southwest 394 453 36,000  Level FlightAware ADS-B (CZBA)
02:08PM 43.6812 -80.5943 212° Southwest 394 453 36,000  Level FlightAware ADS-B (CZBA)
02:09PM 43.6287 -80.6401 212° Southwest 395 455 36,000  Level FlightAware ADS-B (EHTX)
02:10PM 43.5582 -80.7012 212° Southwest 395 455 36,000  Level FlightAware ADS-B (EHTX)
02:10PM 43.5094 -80.7436 212° Southwest 397 457 36,000  Level FlightAware ADS-B (EHTX)
02:11PM 43.4339 -80.8092 212° Southwest 397 457 36,000  Level FlightAware ADS-B (EHTX)
02:12PM 43.3710 -80.8636 212° Southwest 397 457 36,000  Level FlightAware ADS-B (EHTX)
02:12PM 43.3126 -80.9138 212° Southwest 397 457 36,000  Level FlightAware ADS-B (EHTX)
02:13PM 43.2581 -80.9607 212° Southwest 395 455 36,000  Level FlightAware ADS-B (EHTX)
02:14PM 43.1889 -81.0200 212° Southwest 393 452 36,000  Level FlightAware ADS-B (EHTX)
02:14PM 43.1239 -81.0757 212° Southwest 393 452 36,000  Level FlightAware ADS-B (EHTX)
02:15PM 43.0624 -81.1282 212° Southwest 394 453 36,000  Level FlightAware ADS-B (EHTX)
02:16PM 42.9985 -81.1726 207° Southwest 403 464 36,000  Level FlightAware ADS-B (EHTX)
02:16PM 42.9288 -81.2160 205° Southwest 399 459 36,000  Level FlightAware ADS-B (EHTX)
02:17PM 42.8666 -81.2550 205° Southwest 399 459 36,000  Level FlightAware ADS-B (EHTX)
02:18PM 42.7949 -81.2993 204° Southwest 400 460 36,000  Level FlightAware ADS-B (EHTX)
02:18PM 42.7295 -81.3363 203° Southwest 408 470 36,000  Level FlightAware ADS-B (EHTX)
02:19PM 42.6552 -81.3724 200° South 405 466 36,000  Level FlightAware ADS-B (EHTX)
02:20PM 42.5995 -81.3999 200° South 404 465 36,000  Level FlightAware ADS-B (EHTX)
02:20PM 42.5474 -81.4262 200° South 402 463 36,000  Level FlightAware ADS-B (EHTX)
02:21PM 42.4485 -81.4760 200° South 400 460 36,000  Level FlightAware ADS-B (EHTX)
02:22PM 42.3832 -81.5088 200° South 399 459 36,000  Level FlightAware ADS-B (EHTX)
02:22PM 42.3116 -81.5447 200° South 399 459 36,000  Level FlightAware ADS-B (EHTX)
02:23PM 42.2428 -81.5783 200° South 399 459 36,000  Level Cleveland Center
02:24PM 42.1214 -81.6394 200° South 396 456 36,000  Level Cleveland Center
02:25PM 42.0169 -81.6906 200° South 396 456 36,000  Level Cleveland Center
02:26PM 41.9122 -81.7431 200° South 398 458 36,000  Level Cleveland Center
02:27PM 41.8083 -81.7936 200° South 395 455 36,000  Level Cleveland Center
02:28PM 41.7036 -81.8442 200° South 398 458 36,000  Level Cleveland Center
02:29PM 41.5992 -81.8964 201° Southwest 397 457 36,000  Level Cleveland Center
02:31PM 41.4947 -81.9472 200° South 399 459 36,000  Level Cleveland Center
02:32PM 41.3808 -82.0028 200° South 395 455 36,000  Level Cleveland Center
02:33PM 41.2786 -82.0514 200° South 392 451 36,000  Level Cleveland Center
02:34PM 41.1633 -82.1081 200° South 394 453 36,000  Level Cleveland Center
02:35PM 41.0644 -82.1553 200° South 397 457 36,000  Level Cleveland Center
02:40PM 40.4390 -82.4535 200° South 395 455 36,000  Level FlightAware ADS-B
02:42PM 40.3156 -82.5115 200° South 391 450 36,000  Level FlightAware ADS-B
02:42PM 40.2593 -82.5378 200° South 387 445 36,000  Level FlightAware ADS-B
02:43PM 40.1933 -82.5681 199° South 391 450 36,000  Level FlightAware ADS-B
02:44PM 40.1102 -82.5893 191° South 403 464 36,000  Level FlightAware ADS-B
02:44PM 40.0397 -82.5950 183° South 408 470 36,000  Level FlightAware ADS-B
02:45PM 39.9598 -82.6013 183° South 408 470 36,000  Level FlightAware ADS-B
02:46PM 39.9165 -82.6044 183° South 405 466 36,000  Level FlightAware ADS-B
02:46PM 39.8239 -82.6107 183° South 402 463 36,000  Level FlightAware ADS-B
02:50PM 39.4341 -82.6368 183° South 398 458 36,000  Level FlightAware ADS-B
02:54PM 38.9577 -82.6685 183° South 387 445 36,000  Level FlightAware ADS-B
02:55PM 38.8540 -82.6753 183° South 383 441 36,000  Level FlightAware ADS-B
02:56PM 38.7880 -82.6796 183° South 383 441 36,000  Level FlightAware ADS-B
02:56PM 38.7417 -82.6825 183° South 381 438 36,000  Level Indianapolis Center
02:57PM 38.6306 -82.6889 183° South 380 437 36,000  Level Indianapolis Center
02:58PM 38.5264 -82.6956 183° South 375 432 36,000  Level Indianapolis Center
02:59PM 38.4047 -82.7036 183° South 375 432 36,000  Level Indianapolis Center
03:00PM 38.3003 -82.7108 183° South 374 430 36,000  Level Indianapolis Center
03:02PM 38.1972 -82.7178 183° South 370 426 36,000  Level Indianapolis Center
03:03PM 38.0947 -82.7250 183° South 369 425 36,000  Level Indianapolis Center
03:04PM 37.9925 -82.7306 182° South 366 421 36,000  Level Indianapolis Center
03:05PM 37.8897 -82.7375 183° South 368 423 36,000  Level Indianapolis Center
03:06PM 37.7872 -82.7450 183° South 369 425 36,000  Level Indianapolis Center
03:07PM 37.6717 -82.7644 188° South 361 415 36,000  Level Indianapolis Center
03:08PM 37.5861 -82.8108 203° Southwest 336 387 36,000  Level Indianapolis Center
03:09PM 37.5064 -82.8658 209° Southwest 328 377 36,000  Level Indianapolis Center
03:10PM 37.4244 -82.9181 207° Southwest 330 380 36,000  Level Indianapolis Center
03:11PM 37.3439 -82.9722 208° Southwest 329 379 36,000  Level Indianapolis Center
03:12PM 37.2628 -83.0247 207° Southwest 328 377 36,000  Level Indianapolis Center
03:13PM 37.1700 -83.0856 208° Southwest 325 374 36,000  Level Indianapolis Center
03:14PM 37.0897 -83.1367 207° Southwest 326 375 36,000  Level Indianapolis Center
03:15PM 37.0094 -83.1903 208° Southwest 328 377 36,000  Level Indianapolis Center
03:16PM 36.9283 -83.2422 207° Southwest 328 377 36,000  Level Indianapolis Center
03:17PM 36.8469 -83.2947 207° Southwest 329 379 36,000  Level Indianapolis Center
03:18PM 36.7519 -83.3547 207° Southwest 330 380 36,000  Level Indianapolis Center
03:19PM 36.6700 -83.4075 207° Southwest 331 381 36,000 -360 Level Indianapolis Center
03:20PM 36.5881 -83.4603 207° Southwest 333 383 35,300 -540 Descending Indianapolis Center
03:21PM 36.5083 -83.5106 207° Southwest 334 384 35,000 -180 Descending Indianapolis Center
03:22PM 36.4281 -83.5639 208° Southwest 329 379 35,000  Level Indianapolis Center
03:23PM 36.3289 -83.6267 207° Southwest 333 383 35,000  Level Indianapolis Center
03:24PM 36.2467 -83.6783 207° Southwest 331 381 35,000  Level Indianapolis Center
03:25PM 36.1636 -83.7314 207° Southwest 334 384 35,000  Level Indianapolis Center
03:26PM 36.0808 -83.7844 207° Southwest 330 380 35,000  Level Atlanta Center
03:27PM 35.9997 -83.8361 207° Southwest 330 380 35,000  Level Atlanta Center
03:28PM 35.9142 -83.8875 206° Southwest 335 386 35,000  Level Atlanta Center
03:29PM 35.8161 -83.9183 194° South 349 402 35,000  Level Atlanta Center
03:30PM 35.7369 -83.9364 190° South 355 409 35,000  Level Atlanta Center
03:31PM 35.6264 -83.9647 192° South 366 421 35,000  Level Atlanta Center
03:32PM 35.5264 -83.9878 191° South 371 427 35,000  Level Atlanta Center
03:33PM 35.4242 -84.0108 190° South 376 433 35,000  Level Atlanta Center
03:34PM 35.3239 -84.0361 192° South 371 427 35,000  Level Atlanta Center
03:35PM 35.2217 -84.0617 192° South 371 427 35,000  Level Atlanta Center
03:36PM 35.1194 -84.0869 191° South 371 427 35,000 300 Level Atlanta Center
03:37PM 35.0192 -84.1097 191° South 371 427 35,600 480 Climbing Atlanta Center
03:38PM 34.9150 -84.1375 192° South 376 433 36,000 180 Climbing Atlanta Center
03:39PM 34.8106 -84.1603 190° South 376 433 36,000  Level Atlanta Center
03:40PM 34.7061 -84.1853 191° South 376 433 36,000  Level Atlanta Center
03:41PM 34.5936 -84.2078 189° South 375 432 36,000  Level Atlanta Center
03:42PM 34.4892 -84.2328 191° South 375 432 36,000  Level Atlanta Center
03:43PM 34.3847 -84.2603 192° South 381 438 36,000  Level Atlanta Center
03:44PM 34.2783 -84.2850 191° South 386 444 36,000  Level Atlanta Center
03:45PM 34.1739 -84.3075 190° South 391 450 36,000  Level Atlanta Center
03:46PM 34.0694 -84.3347 192° South 397 457 36,000  Level Atlanta Center
03:47PM 33.9650 -84.3594 191° South 397 457 36,000  Level Atlanta Center
03:48PM 33.8439 -84.3889 191° South 397 457 36,000 180 Level Atlanta Center
03:49PM 33.7414 -84.4111 190° South 392 451 36,400 480 Climbing Atlanta Center
03:50PM 33.6350 -84.4356 191° South 398 458 37,000 300 Climbing Atlanta Center
03:51PM 33.5097 -84.4375 181° South 411 473 37,000  Level Atlanta Center
03:52PM 33.3928 -84.4319 178° South 421 484 37,000  Level Atlanta Center
03:53PM 33.2822 -84.4314 180° South 427 491 37,000  Level Atlanta Center
03:54PM 33.1550 -84.4333 181° South 427 491 37,000  Level Atlanta Center
03:55PM 33.0381 -84.4328 180° South 426 490 37,000  Level Atlanta Center
03:56PM 32.9192 -84.4272 178° South 426 490 37,000  Level Atlanta Center
03:57PM 32.7958 -84.4267 180° South 432 497 37,000  Level Atlanta Center
03:58PM 32.6811 -84.4164 176° South 432 497 37,000  Level Atlanta Center
03:59PM 32.5581 -84.4158 180° South 432 497 37,000  Level Atlanta Center
04:00PM 32.4389 -84.4131 179° South 438 504 37,000  Level Atlanta Center
04:01PM 32.3158 -84.4125 180° South 438 504 37,000  Level Atlanta Center
04:02PM 32.1969 -84.4094 179° South 438 504 37,000  Level Atlanta Center
04:03PM 32.0781 -84.4067 179° South 438 504 37,000  Level Atlanta Center
04:04PM 31.9614 -84.4033 179° South 450 518 37,000  Level Jacksonville Center
04:10PM 31.2946 -84.3885 179° South 435 501 37,000  Level FlightAware ADS-B
04:12PM 31.1493 -84.3855 179° South 438 504 37,000  Level FlightAware ADS-B
04:13PM 30.8726 -84.3802 179° South 440 506 37,000  Level FlightAware ADS-B (KTLH)
04:14PM 30.8726 -84.3802 179° South 442 509 37,000  Level FlightAware ADS-B (KTLH)
04:14PM 30.7317 -84.3774 179° South 442 509 37,000  Level FlightAware ADS-B
04:15PM 30.6520 -84.3711 176° South 453 521 37,000  Level FlightAware ADS-B (KTLH)
04:16PM 30.5727 -84.3532 169° South 466 536 37,000  Level FlightAware ADS-B (KTLH)
04:16PM 30.5367 -84.3414 164° South 478 550 37,000  Level FlightAware ADS-B (KTLH)
04:17PM 30.4525 -84.3032 159° South 485 558 37,000  Level FlightAware ADS-B
04:17PM 30.3618 -84.2460 151° Southeast 489 563 37,000  Level FlightAware ADS-B
04:18PM 30.2923 -84.2007 151° Southeast 489 563 37,000  Level FlightAware ADS-B
04:19PM 30.2373 -84.1649 151° Southeast 488 562 37,000  Level FlightAware ADS-B
04:19PM 30.1126 -84.0838 151° Southeast 489 563 37,000  Level FlightAware ADS-B
04:20PM 30.0603 -84.0498 151° Southeast 490 564 37,000  Level FlightAware ADS-B
04:21PM 29.8980 -83.9445 151° Southeast 493 567 37,000  Level FlightAware ADS-B (KTLH)
04:22PM 29.7847 -83.8714 151° Southeast 493 567 37,000  Level Jacksonville Center
04:23PM 29.6661 -83.7961 151° Southeast 493 567 37,000  Level Jacksonville Center
04:24PM 29.5456 -83.7208 151° Southeast 493 567 37,000  Level Jacksonville Center
04:25PM 29.4272 -83.6461 151° Southeast 493 567 37,000  Level Jacksonville Center
04:26PM 29.3086 -83.5667 150° Southeast 493 567 37,000  Level Jacksonville Center
04:27PM 29.1919 -83.4944 152° Southeast 493 567 37,000  Level Jacksonville Center
04:28PM 29.0756 -83.4178 150° Southeast 488 562 37,000  Level Jacksonville Center
04:29PM 28.9567 -83.3433 151° Southeast 488 562 37,000  Level Jacksonville Center
04:30PM 28.8403 -83.2694 151° Southeast 482 555 37,000  Level Jacksonville Center
04:31PM 28.7236 -83.1933 150° Southeast 482 555 37,000  Level Jacksonville Center
04:32PM 28.6067 -83.1219 152° Southeast 482 555 37,000  Level Jacksonville Center
04:37PM 27.9853 -82.7322 152° Southeast 487 560 37,000  Level FlightAware ADS-B (KMCO)
04:38PM 27.9393 -82.7037 151° Southeast 487 560 37,000  Level FlightAware ADS-B (KMCO)
04:39PM 27.8090 -82.6189 150° Southeast 490 564 37,000  Level FlightAware ADS-B
04:40PM 27.7376 -82.5707 149° Southeast 490 564 37,000  Level FlightAware ADS-B (KMCO)
04:40PM 27.6776 -82.5306 149° Southeast 491 565 37,000  Level FlightAware ADS-B (KMCO)
04:41PM 27.5857 -82.4694 149° Southeast 491 565 37,000  Level FlightAware ADS-B (KMCO)
04:41PM 27.5289 -82.4317 150° Southeast 491 565 37,000  Level FlightAware ADS-B
04:42PM 27.4841 -82.4021 150° Southeast 492 566 37,000  Level FlightAware ADS-B (KMCO)
04:43PM 27.3823 -82.3346 150° Southeast 491 565 37,000  Level FlightAware ADS-B (KMCO)
04:43PM 27.3481 -82.3120 150° Southeast 491 565 37,000  Level FlightAware ADS-B
04:44PM 27.2683 -82.2592 150° Southeast 488 562 37,000  Level FlightAware ADS-B (KMCO)
04:45PM 27.1493 -82.1807 150° Southeast 488 562 37,000  Level FlightAware ADS-B (KMCO)
04:45PM 27.0725 -82.1302 150° Southeast 489 563 37,000  Level FlightAware ADS-B (KMCO)
04:47PM 26.8871 -82.0086 150° Southeast 487 560 37,000  Level FlightAware ADS-B (KMCO)
04:48PM 26.8016 -81.9527 150° Southeast 488 562 37,000  Level FlightAware ADS-B (KMCO)
04:48PM 26.7278 -81.9045 150° Southeast 489 563 37,000  Level FlightAware ADS-B (KMCO)
04:49PM 26.6437 -81.8498 150° Southeast 491 565 37,000  Level FlightAware ADS-B (KMCO)
04:50PM 26.5628 -81.7978 150° Southeast 492 566 37,000  Level FlightAware ADS-B (KMCO)
04:50PM 26.4830 -81.7595 157° South 487 560 37,000  Level FlightAware ADS-B (KMCO)
04:51PM 26.4363 -81.7419 161° South 487 560 37,000  Level FlightAware ADS-B (KMCO)
04:52PM 26.2691 -81.6766 161° South 488 562 37,000  Level FlightAware ADS-B (KMCO)
04:54PM 26.0638 -81.5991 161° South 490 564 37,000  Level FlightAware ADS-B (KMCO)
04:54PM 25.9831 -81.5687 161° South 487 560 37,000  Level FlightAware ADS-B (KMCO)
04:55PM 25.8848 -81.5317 161° South 486 559 37,000  Level FlightAware ADS-B (KMCO)
04:56PM 25.7961 -81.4984 161° South 486 559 37,000  Level FlightAware ADS-B (KMCO)
04:56PM 25.7102 -81.4662 161° South 489 563 37,000  Level FlightAware ADS-B (KMCO)
04:57PM 25.5875 -81.4203 161° South 489 563 37,000  Level FlightAware ADS-B (KMCO)
04:58PM 25.4489 -81.3711 161° South 496 571 37,000 -240 Level Miami Center
04:59PM 25.3183 -81.3456 170° South 489 563 36,500 -780 Descending Miami Center
05:00PM 25.2058 -81.4033 205° Southwest 448 516 35,500 -1,020 Descending Miami Center
05:01PM 25.1111 -81.4939 221° Southwest 427 491 34,500 -1,020 Descending Miami Center
05:02PM 25.0206 -81.5844 222° Southwest 438 504 33,500 -1,020 Descending Miami Center
05:03PM 24.9281 -81.6703 220° Southwest 445 512 32,500 -960 Descending Miami Center
05:04PM 24.8461 -81.7472 220° Southwest 436 502 31,600 -960 Descending Miami Center
05:05PM 24.7575 -81.8328 221° Southwest 431 496 30,600 -1,080 Descending Miami Center
05:06PM 24.6564 -81.9200 218° Southwest 426 490 29,500 -1,020 Descending Miami Center
05:07PM 24.5725 -81.9967 220° Southwest 414 476 28,600 -960 Descending Miami Center
05:08PM 24.4861 -82.0728 219° Southwest 403 464 27,600 -900 Descending Miami Center
05:09PM 24.4042 -82.1536 222° Southwest 403 464 26,800 -900 Descending Miami Center
05:10PM 24.3200 -82.2253 218° Southwest 398 458 25,900 -900 Descending Miami Center
05:11PM 24.2422 -82.3017 222° Southwest 393 452 25,000 -900 Descending Miami Center
05:13PM 24.1055 -82.3135 230° Southwest  Level Estimated
05:20PM 23.3822 -82.4332 175° South  Level FlightAware Approximate
05:21PM 23.2684 -82.4218 175° South  Level FlightAware Approximate
05:22PM 23.1543 -82.4167 180° South  Level FlightAware Approximate
05:23PM 23.0415 -82.4000 180° South  Level FlightAware Approximate
05:24PM 22.9891 -82.4091 180° South  Level Estimated
05:25PM 22.9891 -82.4091 180° South  Level Estimated
05:26PM 22.9891 -82.4091 180° South  Level Estimated
05:27PM 22.9891 -82.4091 180° South  Level Estimated
05:28PM 22.9891 -82.4091 180° South  Level Estimated
05:29PM 22.9891 -82.4091 180° South  Level Estimated
05:30PM 22.9891 -82.4091 180° South  Level Estimated
05:31PM 22.9891 -82.4091 180° South  Level Estimated
05:32PM 22.9891 -82.4091 180° South  Level Estimated
05:33PM 22.9891 -82.4091 180° South  Level Estimated
05:34PM 22.9891 -82.4091 180° South  Level Estimated
05:35PM 22.9891 -82.4091 180° South  Level Estimated
05:36PM 22.9891 -82.4091 180° South  Level Estimated
05:37PM 22.9891 -82.4091 180° South  Level Estimated
05:38PM 22.9891 -82.4091 180° South  Level Estimated
05:39PM 22.9891 -82.4091 180° South  Level Estimated
05:40PM 22.9891 -82.4091 180° South  Level Estimated
05:41PM 22.9891 -82.4091 180° South  Level Estimated
05:42PM 22.9891 -82.4091 180° South  Level Estimated
05:43PM 22.9891 -82.4091 180° South  Level Estimated
05:44PM 22.9891 -82.4091 180° South  Level Estimated
05:45PM 22.9891 -82.4091 180° South  Level Estimated
05:46PM 22.9891 -82.4091 180° South  Level Estimated
05:47PM 22.9891 -82.4091 180° South  Level Estimated
05:48PM 22.9891 -82.4091 180° South  Level Estimated